Milwaukee, Wisconsin
Traffic Map
Current Weather Conditions
Milwaukee, Wisconsin
Overcast Light Rain
Overcast

Feels Like: 3°
Wind Chill: Ceiling: 3100
Heat Index: Visibility: 8mi
Dew Point: Wind: 21mph
Humidity: 89% Direction: 20° (NNE)
Pressure: 30.13in Gusts: 33mph
Raw Report DataKMKE 302052Z 02018G29KT 8SM -RA FEW008 OVC031 08/06 A3013 RMK AO2 PK WND 01035/2022 SLP205 P0004 60024 T00780061 53008
Traffic Incident Summary
Active as of:
Severity:
Category:
InformationThere was an issue retrieving the traffic information for this location. Please try a different location or try again shortly.
Advertisements
Track Severe Weather on mobile